createdAt,value
2023-03-16T00:00:14.040Z,99662.16
2023-03-16T00:00:45.857Z,99653.47
2023-03-16T00:01:18.772Z,99657.31
2023-03-16T00:01:50.523Z,99663.25
2023-03-16T00:02:22.398Z,99655.28
2023-03-16T00:02:54.293Z,99659.75
2023-03-16T00:03:30.561Z,99645.84
2023-03-16T00:04:02.417Z,99658.19
2023-03-16T00:04:37.897Z,99652.75
2023-03-16T00:05:13.067Z,99659.16
2023-03-16T00:05:54.694Z,99657.09
2023-03-16T00:06:26.509Z,99660.88
2023-03-16T00:06:59.149Z,99656.63
2023-03-16T00:07:30.928Z,99661.94
2023-03-16T00:08:03.299Z,99649.47
2023-03-16T00:08:35.948Z,99669.34
2023-03-16T00:09:09.803Z,99655.41
2023-03-16T00:09:42.855Z,99655.41
2023-03-16T00:10:14.730Z,99660.72
2023-03-16T00:10:47.305Z,99659.75
2023-03-16T00:11:19.068Z,99663.25
2023-03-16T00:11:51.034Z,99660.13
2023-03-16T00:12:22.838Z,99665.22
2023-03-16T00:12:55.241Z,99659.50
2023-03-16T00:13:27.661Z,99669.19
2023-03-16T00:13:59.443Z,99660.25
2023-03-16T00:14:32.611Z,99662.06
2023-03-16T00:15:05.133Z,99655.28
2023-03-16T00:15:36.874Z,99652.63
2023-03-16T00:16:09.146Z,99658.91
2023-03-16T00:16:41.040Z,99658.78
2023-03-16T00:17:20.262Z,99650.09
2023-03-16T00:17:52.249Z,99663.53
2023-03-16T00:18:29.154Z,99653.97
2023-03-16T00:19:03.291Z,99657.47
2023-03-16T00:19:35.351Z,99653.59
2023-03-16T00:20:07.852Z,99661.56
2023-03-16T00:20:39.594Z,99656.38
2023-03-16T00:21:14.984Z,99670.41
2023-03-16T00:21:46.773Z,99659.16
2023-03-16T00:22:18.523Z,99651.06
2023-03-16T00:22:50.344Z,99655.06
2023-03-16T00:23:27.586Z,99653.47
2023-03-16T00:23:59.432Z,99661.44
2023-03-16T00:24:32.006Z,99652.53
2023-03-16T00:25:04.678Z,99664.13
2023-03-16T00:25:36.425Z,99657.09
2023-03-16T00:26:10.128Z,99652.63
2023-03-16T00:26:42.376Z,99663.19
2023-03-16T00:27:15.668Z,99651.06
2023-03-16T00:27:47.699Z,99665.09
2023-03-16T00:28:19.662Z,99659.63
2023-03-16T00:28:54.404Z,99656.13
2023-03-16T00:29:26.306Z,99663.06
2023-03-16T00:29:58.159Z,99658.44
2023-03-16T00:30:32.859Z,99661.44
2023-03-16T00:31:07.121Z,99667.03
2023-03-16T00:31:45.281Z,99653.75
2023-03-16T00:32:25.845Z,99662.19
2023-03-16T00:32:57.607Z,99663.66
2023-03-16T00:33:29.896Z,99661.00
2023-03-16T00:34:02.944Z,99657.00
2023-03-16T00:34:34.750Z,99658.84
2023-03-16T00:35:09.418Z,99659.28
2023-03-16T00:35:50.423Z,99665.44
2023-03-16T00:36:22.903Z,99670.66
2023-03-16T00:36:55.437Z,99652.53
2023-03-16T00:37:28.652Z,99657.25
2023-03-16T00:38:00.461Z,99658.69
2023-03-16T00:38:37.553Z,99657.13
2023-03-16T00:39:11.814Z,99670.19
2023-03-16T00:39:45.991Z,99660.03
2023-03-16T00:40:17.793Z,99664.63
2023-03-16T00:40:51.352Z,99657.84
2023-03-16T00:41:23.112Z,99662.69
2023-03-16T00:41:58.456Z,99663.44
2023-03-16T00:42:31.550Z,99660.53
2023-03-16T00:43:03.859Z,99663.78
2023-03-16T00:43:45.470Z,99659.19
2023-03-16T00:44:17.324Z,99660.88
2023-03-16T00:44:49.141Z,99659.53
2023-03-16T00:45:20.893Z,99658.84
2023-03-16T00:45:58.866Z,99678.50
2023-03-16T00:46:30.966Z,99663.06
2023-03-16T00:47:04.722Z,99673.31
2023-03-16T00:47:36.750Z,99669.69
2023-03-16T00:48:08.522Z,99675.97
2023-03-16T00:48:42.961Z,99667.28
2023-03-16T00:49:14.708Z,99670.78
2023-03-16T00:49:46.478Z,99664.63
2023-03-16T00:50:22.394Z,99665.59
2023-03-16T00:50:54.554Z,99664.16
2023-03-16T00:51:26.390Z,99664.84
2023-03-16T00:51:58.155Z,99670.91
2023-03-16T00:52:30.269Z,99676.94
2023-03-16T00:53:02.138Z,99668.00
2023-03-16T00:53:35.352Z,99669.34
2023-03-16T00:54:07.136Z,99660.66
2023-03-16T00:54:38.974Z,99663.91
2023-03-16T00:55:10.729Z,99666.31
2023-03-16T00:55:42.519Z,99666.81
2023-03-16T00:56:14.989Z,99666.56
2023-03-16T00:56:46.875Z,99663.78
2023-03-16T00:57:19.602Z,99661.47
2023-03-16T00:57:51.377Z,99663.19
2023-03-16T00:58:23.393Z,99666.69
2023-03-16T00:58:57.909Z,99666.94
2023-03-16T00:59:31.190Z,99672.00
2023-03-16T01:00:13.041Z,99676.22
2023-03-16T01:00:45.479Z,99671.75
2023-03-16T01:01:20.395Z,99675.03
2023-03-16T01:01:55.966Z,99670.31
2023-03-16T01:02:27.915Z,99683.34
2023-03-16T01:02:59.816Z,99678.16
2023-03-16T01:03:32.362Z,99679.25
2023-03-16T01:04:04.223Z,99679.63
2023-03-16T01:04:37.041Z,99681.44
2023-03-16T01:05:09.461Z,99679.72
2023-03-16T01:05:42.594Z,99685.88
2023-03-16T01:06:17.297Z,99681.19
2023-03-16T01:06:50.483Z,99689.50
2023-03-16T01:07:23.042Z,99693.84
2023-03-16T01:07:54.820Z,99679.25
2023-03-16T01:08:30.075Z,99686.88
2023-03-16T01:09:05.798Z,99686.16
2023-03-16T01:09:37.758Z,99680.34
2023-03-16T01:10:10.300Z,99682.38
2023-03-16T01:10:42.136Z,99691.81
2023-03-16T01:11:17.235Z,99687.97
2023-03-16T01:11:53.571Z,99682.16
2023-03-16T01:12:25.368Z,99685.66
2023-03-16T01:12:57.141Z,99687.47
2023-03-16T01:13:29.302Z,99682.38
2023-03-16T01:14:01.683Z,99685.03
2023-03-16T01:14:35.240Z,99679.00
2023-03-16T01:15:07.710Z,99690.97
2023-03-16T01:15:39.542Z,99672.09
2023-03-16T01:16:11.408Z,99692.53
2023-03-16T01:16:46.036Z,99673.91
2023-03-16T01:17:18.203Z,99675.25
2023-03-16T01:17:50.048Z,99688.44
2023-03-16T01:18:22.492Z,99684.81
2023-03-16T01:18:55.331Z,99688.44
2023-03-16T01:19:27.793Z,99693.00
2023-03-16T01:19:59.536Z,99684.81
2023-03-16T01:20:33.638Z,99685.66
2023-03-16T01:21:09.094Z,99684.81
2023-03-16T01:21:42.698Z,99691.81
2023-03-16T01:22:15.969Z,99703.41
2023-03-16T01:22:47.866Z,99696.28
2023-03-16T01:23:21.075Z,99690.97
2023-03-16T01:23:54.018Z,99687.59
2023-03-16T01:24:25.917Z,99688.19
2023-03-16T01:24:58.536Z,99699.16
2023-03-16T01:25:30.380Z,99700.63
2023-03-16T01:26:02.584Z,99692.53
2023-03-16T01:26:34.546Z,99700.63
2023-03-16T01:27:07.411Z,99700.75
2023-03-16T01:27:39.296Z,99707.41
2023-03-16T01:28:11.076Z,99706.66
2023-03-16T01:28:44.492Z,99696.03
2023-03-16T01:29:16.333Z,99695.09
2023-03-16T01:29:48.238Z,99705.72
2023-03-16T01:30:21.106Z,99707.03
2023-03-16T01:30:57.869Z,99710.53
2023-03-16T01:31:29.660Z,99702.78
2023-03-16T01:32:02.724Z,99692.16
2023-03-16T01:32:34.520Z,99699.75
2023-03-16T01:33:06.324Z,99717.41
2023-03-16T01:33:38.927Z,99711.47
2023-03-16T01:34:16.598Z,99718.25
2023-03-16T01:34:48.351Z,99716.06
2023-03-16T01:35:21.916Z,99715.84
2023-03-16T01:35:59.462Z,99709.53
2023-03-16T01:36:32.091Z,99725.50
2023-03-16T01:37:03.926Z,99716.81
2023-03-16T01:37:35.675Z,99707.97
2023-03-16T01:38:07.458Z,99715.34
2023-03-16T01:38:39.820Z,99717.41
2023-03-16T01:39:12.517Z,99717.41
2023-03-16T01:39:44.299Z,99719.84
2023-03-16T01:40:16.370Z,99712.06
2023-03-16T01:40:51.505Z,99708.19
2023-03-16T01:41:23.418Z,99700.81
2023-03-16T01:41:55.254Z,99705.63
2023-03-16T01:42:27.057Z,99714.69
2023-03-16T01:43:03.166Z,99709.97
2023-03-16T01:43:37.787Z,99708.53
2023-03-16T01:44:24.515Z,99706.72
2023-03-16T01:45:02.213Z,99706.47
2023-03-16T01:46:05.151Z,99710.34
2023-03-16T01:46:37.543Z,99712.75
2023-03-16T01:47:09.375Z,99719.75
2023-03-16T01:47:41.143Z,99718.47
2023-03-16T01:48:13.171Z,99713.59
2023-03-16T01:49:09.543Z,99720.22
2023-03-16T01:49:41.381Z,99708.75
2023-03-16T01:50:13.387Z,99712.50
2023-03-16T01:50:46.032Z,99722.03
2023-03-16T01:51:24.631Z,99724.41
2023-03-16T01:52:07.164Z,99728.47
2023-03-16T01:52:40.198Z,99721.59
2023-03-16T01:53:12.170Z,99722.44
2023-03-16T01:53:47.027Z,99723.88
2023-03-16T01:54:33.920Z,99714.69
2023-03-16T01:55:13.479Z,99718.22
2023-03-16T01:55:46.958Z,99721.72
2023-03-16T01:56:34.764Z,99716.28
2023-03-16T01:57:11.906Z,99724.72
2023-03-16T01:57:46.842Z,99716.41
2023-03-16T01:58:18.776Z,99719.44
2023-03-16T01:58:53.977Z,99716.56
2023-03-16T01:59:44.929Z,99727.69
2023-03-16T02:00:20.868Z,99728.00
2023-03-16T02:00:52.735Z,99721.13
2023-03-16T02:01:29.234Z,99726.56
2023-03-16T02:02:02.866Z,99721.72
2023-03-16T02:02:35.202Z,99723.13
2023-03-16T02:03:13.971Z,99721.94
2023-03-16T02:03:46.256Z,99727.19
2023-03-16T02:04:50.093Z,99731.75
2023-03-16T02:05:43.724Z,99719.00
2023-03-16T02:06:19.209Z,99724.91
2023-03-16T02:06:55.053Z,99726.53
2023-03-16T02:07:29.316Z,99729.91
2023-03-16T02:08:02.887Z,99729.28
2023-03-16T02:08:38.855Z,99722.91
2023-03-16T02:09:11.686Z,99729.16
2023-03-16T02:09:47.264Z,99729.28
2023-03-16T02:10:20.612Z,99717.84
2023-03-16T02:10:54.750Z,99736.41
2023-03-16T02:11:26.908Z,99740.00
2023-03-16T02:11:59.736Z,99725.28
2023-03-16T02:12:32.023Z,99731.25
2023-03-16T02:13:04.415Z,99733.19
2023-03-16T02:13:39.173Z,99741.66
2023-03-16T02:14:12.520Z,99731.44
2023-03-16T02:14:46.116Z,99736.75
2023-03-16T02:15:17.843Z,99727.94
2023-03-16T02:15:51.378Z,99725.88
2023-03-16T02:16:23.507Z,99735.00
2023-03-16T02:16:56.721Z,99738.72
2023-03-16T02:17:31.871Z,99740.50
2023-03-16T02:18:04.659Z,99727.03
2023-03-16T02:18:36.709Z,99734.81
2023-03-16T02:19:17.357Z,99728.53
2023-03-16T02:20:25.437Z,99726.19
2023-03-16T02:21:05.669Z,99750.69
2023-03-16T02:21:48.059Z,99731.03
2023-03-16T02:22:25.010Z,99736.94
2023-03-16T02:22:57.510Z,99716.56
2023-03-16T02:23:30.089Z,99726.38
2023-03-16T02:24:03.338Z,99719.59
2023-03-16T02:24:37.359Z,99729.25
2023-03-16T02:25:10.580Z,99732.75
2023-03-16T02:25:48.992Z,99729.03
2023-03-16T02:26:59.520Z,99718.78
2023-03-16T02:27:36.653Z,99722.97
2023-03-16T02:28:37.411Z,99739.38
2023-03-16T02:29:14.580Z,99734.47
2023-03-16T02:29:54.974Z,99739.53
2023-03-16T02:30:27.602Z,99733.25
2023-03-16T02:31:00.392Z,99727.81
2023-03-16T02:31:32.481Z,99740.03
2023-03-16T02:32:05.817Z,99730.00
2023-03-16T02:32:39.955Z,99730.13
2023-03-16T02:33:13.003Z,99743.53
2023-03-16T02:33:47.736Z,99740.38
2023-03-16T02:34:19.802Z,99738.56
2023-03-16T02:34:52.032Z,99732.91
2023-03-16T02:35:24.088Z,99735.56
2023-03-16T02:35:55.902Z,99733.03
2023-03-16T02:36:30.064Z,99735.06
2023-03-16T02:37:03.424Z,99735.06
2023-03-16T02:37:35.673Z,99738.19
2023-03-16T02:38:07.482Z,99735.31
2023-03-16T02:38:39.305Z,99731.31
2023-03-16T02:39:11.085Z,99743.44
2023-03-16T02:39:44.216Z,99737.97
2023-03-16T02:40:26.655Z,99743.63
2023-03-16T02:41:12.653Z,99737.13
2023-03-16T02:41:46.006Z,99738.19
2023-03-16T02:42:26.585Z,99727.13
2023-03-16T02:43:08.937Z,99737.25
2023-03-16T02:43:46.803Z,99740.25
2023-03-16T02:44:27.845Z,99740.00
2023-03-16T02:45:00.485Z,99746.91
2023-03-16T02:45:40.993Z,99742.31
2023-03-16T02:46:14.844Z,99748.22
2023-03-16T02:46:48.691Z,99738.75
2023-03-16T02:47:32.493Z,99730.00
2023-03-16T02:48:14.663Z,99738.72
2023-03-16T02:49:05.896Z,99757.13
2023-03-16T02:49:43.924Z,99747.25
2023-03-16T02:50:15.897Z,99736.88
2023-03-16T02:50:51.544Z,99742.91
2023-03-16T02:51:23.310Z,99760.06
2023-03-16T02:51:57.520Z,99751.97
2023-03-16T02:52:29.300Z,99742.44
2023-03-16T02:53:01.032Z,99745.44
2023-03-16T02:53:32.808Z,99753.06
2023-03-16T02:54:22.939Z,99749.19
2023-03-16T02:54:55.676Z,99752.22
2023-03-16T02:55:27.535Z,99754.03
2023-03-16T02:55:59.267Z,99754.34
2023-03-16T02:56:31.060Z,99763.91
2023-03-16T02:57:02.848Z,99750.13
2023-03-16T02:57:34.844Z,99742.84
2023-03-16T02:58:06.831Z,99745.94
2023-03-16T02:58:38.551Z,99761.19
2023-03-16T02:59:10.373Z,99755.13
2023-03-16T02:59:42.170Z,99758.75
2023-03-16T03:00:18.995Z,99756.75
2023-03-16T03:00:51.042Z,99762.63
2023-03-16T03:01:23.266Z,99759.13
2023-03-16T03:01:55.050Z,99756.28
2023-03-16T03:02:26.882Z,99755.69
2023-03-16T03:02:58.630Z,99761.34
2023-03-16T03:03:30.691Z,99746.16
2023-03-16T03:04:04.245Z,99755.50
2023-03-16T03:04:35.987Z,99762.63
2023-03-16T03:05:08.564Z,99750.41
2023-03-16T03:05:40.520Z,99763.53
2023-03-16T03:06:12.298Z,99764.38
2023-03-16T03:06:44.374Z,99768.84
2023-03-16T03:07:16.637Z,99752.31
2023-03-16T03:08:07.209Z,99768.00
2023-03-16T03:08:39.061Z,99769.09
2023-03-16T03:09:11.813Z,99768.75
2023-03-16T03:09:43.927Z,99766.19
2023-03-16T03:10:16.080Z,99765.47
2023-03-16T03:10:47.855Z,99774.28
2023-03-16T03:11:19.827Z,99774.56
2023-03-16T03:11:51.844Z,99774.34
2023-03-16T03:12:23.771Z,99775.19
2023-03-16T03:12:55.550Z,99783.16
2023-03-16T03:13:27.865Z,99781.34
2023-03-16T03:13:59.692Z,99776.88
2023-03-16T03:14:31.412Z,99785.19
2023-03-16T03:15:04.020Z,99783.72
2023-03-16T03:15:36.097Z,99783.72
2023-03-16T03:16:08.047Z,99786.03
2023-03-16T03:16:39.875Z,99773.22
2023-03-16T03:17:13.412Z,99788.63
2023-03-16T03:17:46.680Z,99781.63
2023-03-16T03:18:18.505Z,99787.25
2023-03-16T03:18:52.803Z,99790.25
2023-03-16T03:19:24.548Z,99777.09
2023-03-16T03:20:00.737Z,99782.72
2023-03-16T03:20:33.304Z,99784.63
2023-03-16T03:21:05.649Z,99794.09
2023-03-16T03:21:37.407Z,99793.31
2023-03-16T03:22:09.206Z,99801.09
2023-03-16T03:22:41.207Z,99791.84
2023-03-16T03:23:15.430Z,99786.75
2023-03-16T03:23:47.452Z,99794.19
2023-03-16T03:24:19.237Z,99796.75
2023-03-16T03:24:51.564Z,99795.22
2023-03-16T03:25:23.755Z,99791.84
2023-03-16T03:25:59.547Z,99790.97
2023-03-16T03:26:31.368Z,99789.28
2023-03-16T03:27:06.051Z,99795.22
2023-03-16T03:27:38.737Z,99803.50
2023-03-16T03:28:11.537Z,99806.88
2023-03-16T03:28:46.490Z,99798.84
2023-03-16T03:29:18.574Z,99800.28
2023-03-16T03:29:50.338Z,99795.94
2023-03-16T03:30:25.876Z,99800.31
2023-03-16T03:30:57.857Z,99790.38
2023-03-16T03:31:29.684Z,99792.81
2023-03-16T03:32:02.354Z,99805.34
2023-03-16T03:32:34.105Z,99801.59
2023-03-16T03:33:06.033Z,99795.38
2023-03-16T03:33:37.907Z,99804.91
2023-03-16T03:34:10.072Z,99806.88
2023-03-16T03:34:42.646Z,99804.03
2023-03-16T03:35:16.131Z,99802.94
2023-03-16T03:35:48.502Z,99802.53
2023-03-16T03:36:22.249Z,99808.94
2023-03-16T03:36:54.277Z,99815.81
2023-03-16T03:37:26.096Z,99815.41
2023-03-16T03:37:58.025Z,99812.13
2023-03-16T03:38:29.813Z,99811.91
2023-03-16T03:39:05.200Z,99813.41
2023-03-16T03:39:37.115Z,99812.56
2023-03-16T03:40:12.063Z,99803.97
2023-03-16T03:40:43.796Z,99805.78
2023-03-16T03:41:15.625Z,99807.16
2023-03-16T03:41:47.370Z,99810.47
2023-03-16T03:42:19.525Z,99806.97
2023-03-16T03:42:51.640Z,99807.91
2023-03-16T03:43:23.366Z,99817.34
2023-03-16T03:43:55.119Z,99806.31
2023-03-16T03:44:27.177Z,99819.56
2023-03-16T03:44:58.908Z,99816.06
2023-03-16T03:45:30.737Z,99815.34
2023-03-16T03:46:04.154Z,99816.38
2023-03-16T03:46:36.099Z,99814.28
2023-03-16T03:47:08.128Z,99817.34
2023-03-16T03:47:41.326Z,99828.59
2023-03-16T03:48:13.425Z,99818.44
2023-03-16T03:48:45.197Z,99816.94
2023-03-16T03:49:17.105Z,99828.25
2023-03-16T03:49:48.992Z,99828.06
2023-03-16T03:50:21.538Z,99816.63
2023-03-16T03:50:53.888Z,99822.88
2023-03-16T03:51:25.761Z,99829.75
2023-03-16T03:51:59.329Z,99822.00
2023-03-16T03:52:31.114Z,99821.38
2023-03-16T03:53:02.892Z,99825.00
2023-03-16T03:53:34.628Z,99818.72
2023-03-16T03:54:06.502Z,99814.72
2023-03-16T03:54:38.298Z,99812.91
2023-03-16T03:55:10.888Z,99815.00
2023-03-16T03:55:42.650Z,99805.25
2023-03-16T03:56:14.445Z,99822.53
2023-03-16T03:56:46.277Z,99819.47
2023-03-16T03:57:19.105Z,99819.34
2023-03-16T03:57:51.583Z,99815.66
2023-03-16T03:58:23.445Z,99812.34
2023-03-16T03:58:55.240Z,99816.47
2023-03-16T03:59:27.402Z,99816.78
2023-03-16T03:59:59.131Z,99821.97
2023-03-16T04:00:31.228Z,99820.69
2023-03-16T04:01:02.976Z,99812.84
2023-03-16T04:01:34.791Z,99809.47
2023-03-16T04:02:06.921Z,99813.38
2023-03-16T04:02:38.990Z,99812.75
2023-03-16T04:03:10.984Z,99815.94
2023-03-16T04:03:45.177Z,99812.13
2023-03-16T04:04:17.026Z,99826.00
2023-03-16T04:04:49.068Z,99827.38
2023-03-16T04:05:22.024Z,99814.88
2023-03-16T04:05:53.748Z,99821.47
2023-03-16T04:06:25.524Z,99822.22
2023-03-16T04:06:57.277Z,99816.69
2023-03-16T04:07:29.308Z,99813.72
2023-03-16T04:08:01.082Z,99807.69
2023-03-16T04:08:32.984Z,99821.38
2023-03-16T04:09:05.562Z,99815.94
2023-03-16T04:09:37.518Z,99819.56
2023-03-16T04:10:09.975Z,99817.53
2023-03-16T04:10:41.731Z,99819.84
2023-03-16T04:11:13.584Z,99817.00
2023-03-16T04:11:45.400Z,99808.00
2023-03-16T04:12:17.349Z,99822.41
2023-03-16T04:12:49.127Z,99817.31
2023-03-16T04:13:20.859Z,99818.72
2023-03-16T04:13:53.564Z,99809.50
2023-03-16T04:14:25.276Z,99820.44
2023-03-16T04:14:57.134Z,99820.22
2023-03-16T04:15:28.961Z,99829.53
2023-03-16T04:16:04.904Z,99814.38
2023-03-16T04:16:36.895Z,99814.56
2023-03-16T04:17:09.080Z,99822.13
2023-03-16T04:17:40.856Z,99816.25
2023-03-16T04:18:13.092Z,99818.31
2023-03-16T04:18:46.273Z,99818.84
2023-03-16T04:19:18.066Z,99823.63
2023-03-16T04:19:50.253Z,99826.88
2023-03-16T04:20:23.281Z,99822.13
2023-03-16T04:20:55.489Z,99828.81
2023-03-16T04:21:27.576Z,99828.91
2023-03-16T04:21:59.342Z,99828.69
2023-03-16T04:22:31.189Z,99809.91
2023-03-16T04:23:03.004Z,99809.28
2023-03-16T04:23:34.884Z,99817.75
2023-03-16T04:24:06.853Z,99830.47
2023-03-16T04:24:38.783Z,99820.28
2023-03-16T04:25:12.352Z,99811.59
2023-03-16T04:25:45.435Z,99815.84
2023-03-16T04:26:18.007Z,99830.59
2023-03-16T04:26:49.840Z,99823.19
2023-03-16T04:27:21.722Z,99829.22
2023-03-16T04:27:54.119Z,99822.81
2023-03-16T04:28:26.852Z,99837.59
2023-03-16T04:28:59.200Z,99829.31
2023-03-16T04:29:32.089Z,99831.75
2023-03-16T04:30:11.327Z,99838.88
2023-03-16T04:30:43.089Z,99834.53
2023-03-16T04:31:14.925Z,99836.31
2023-03-16T04:31:46.987Z,99835.78
2023-03-16T04:32:18.703Z,99830.59
2023-03-16T04:32:51.426Z,99830.28
2023-03-16T04:33:23.229Z,99846.09
2023-03-16T04:33:54.989Z,99838.97
2023-03-16T04:34:27.024Z,99848.00
2023-03-16T04:34:58.737Z,99832.59
2023-03-16T04:35:31.928Z,99834.75
2023-03-16T04:36:05.868Z,99830.84
2023-03-16T04:36:39.006Z,99835.06
2023-03-16T04:37:10.921Z,99849.81
2023-03-16T04:37:42.708Z,99841.88
2023-03-16T04:38:14.870Z,99845.13
2023-03-16T04:38:46.646Z,99846.94
2023-03-16T04:39:19.937Z,99852.13
2023-03-16T04:39:51.850Z,99848.94
2023-03-16T04:40:23.767Z,99854.06
2023-03-16T04:40:56.378Z,99848.09
2023-03-16T04:41:28.145Z,99847.25
2023-03-16T04:41:59.913Z,99853.19
2023-03-16T04:42:31.676Z,99841.66
2023-03-16T04:43:03.513Z,99844.28
2023-03-16T04:43:35.517Z,99846.22
2023-03-16T04:44:07.969Z,99852.97
2023-03-16T04:44:44.422Z,99852.25
2023-03-16T04:45:20.478Z,99846.53
2023-03-16T04:45:52.262Z,99848.34
2023-03-16T04:46:24.997Z,99851.94
2023-03-16T04:46:56.735Z,99847.25
2023-03-16T04:47:28.520Z,99827.22
2023-03-16T04:48:00.539Z,99850.97
2023-03-16T04:48:32.558Z,99855.88
2023-03-16T04:49:04.350Z,99854.06
2023-03-16T04:49:36.197Z,99858.81
2023-03-16T04:50:09.002Z,99860.44
2023-03-16T04:50:41.045Z,99860.75
2023-03-16T04:51:12.970Z,99827.53
2023-03-16T04:51:44.774Z,99854.38
2023-03-16T04:52:16.529Z,99858.50
2023-03-16T04:52:48.542Z,99858.28
2023-03-16T04:53:20.359Z,99862.75
2023-03-16T04:53:54.128Z,99866.25
2023-03-16T04:54:25.881Z,99857.34
2023-03-16T04:54:57.729Z,99861.28
2023-03-16T04:55:29.739Z,99865.19
2023-03-16T04:56:01.684Z,99864.00
2023-03-16T04:56:33.921Z,99871.09
2023-03-16T04:57:05.990Z,99871.78
2023-03-16T04:57:37.914Z,99868.69
2023-03-16T04:58:09.686Z,99862.00
2023-03-16T04:58:41.708Z,99885.56
2023-03-16T04:59:13.593Z,99876.00
2023-03-16T04:59:45.564Z,99875.16
2023-03-16T05:00:21.185Z,99867.84
2023-03-16T05:00:54.382Z,99878.13
2023-03-16T05:01:26.373Z,99873.69
2023-03-16T05:01:58.294Z,99876.22
2023-03-16T05:02:30.149Z,99869.53
2023-03-16T05:03:02.825Z,99880.88
2023-03-16T05:03:34.952Z,99877.59
2023-03-16T05:04:06.689Z,99886.84
2023-03-16T05:04:38.482Z,99874.72
2023-03-16T05:05:10.520Z,99884.59
2023-03-16T05:05:42.641Z,99882.69
2023-03-16T05:06:14.534Z,99886.00
2023-03-16T05:06:46.313Z,99878.03
2023-03-16T05:07:18.154Z,99883.66
2023-03-16T05:07:50.612Z,99881.41
2023-03-16T05:08:22.639Z,99884.19
2023-03-16T05:08:54.398Z,99891.41
2023-03-16T05:09:26.177Z,99883.13
2023-03-16T05:09:57.997Z,99880.56
2023-03-16T05:10:30.046Z,99899.88
2023-03-16T05:11:02.092Z,99889.38
2023-03-16T05:11:33.894Z,99883.13
2023-03-16T05:12:05.932Z,99886.41
2023-03-16T05:12:37.741Z,99876.94
2023-03-16T05:13:09.540Z,99885.84
2023-03-16T05:13:41.275Z,99892.09
2023-03-16T05:14:13.017Z,99883.19
2023-03-16T05:14:44.822Z,99881.91
2023-03-16T05:15:16.647Z,99892.72
2023-03-16T05:15:48.456Z,99894.88
2023-03-16T05:16:20.253Z,99895.31
2023-03-16T05:16:52.346Z,99889.03
2023-03-16T05:17:25.567Z,99902.63
2023-03-16T05:17:57.821Z,99895.75
2023-03-16T05:18:29.646Z,99892.75
2023-03-16T05:19:02.108Z,99898.47
2023-03-16T05:19:34.053Z,99908.47
2023-03-16T05:20:09.267Z,99895.63
2023-03-16T05:20:42.199Z,99900.59
2023-03-16T05:21:14.909Z,99903.78
2023-03-16T05:21:46.715Z,99895.50
2023-03-16T05:22:18.569Z,99899.41
2023-03-16T05:22:50.940Z,99899.84
2023-03-16T05:23:23.812Z,99893.94
2023-03-16T05:23:55.662Z,99900.81
2023-03-16T05:24:27.431Z,99910.38
2023-03-16T05:25:03.493Z,99898.16
2023-03-16T05:25:35.368Z,99902.31
2023-03-16T05:26:07.768Z,99889.88
2023-03-16T05:26:40.169Z,99914.28
2023-03-16T05:27:12.007Z,99911.84
2023-03-16T05:27:51.935Z,99906.13
2023-03-16T05:28:23.803Z,99898.59
2023-03-16T05:28:55.697Z,99904.66
2023-03-16T05:29:27.434Z,99902.00
2023-03-16T05:29:59.241Z,99921.19
2023-03-16T05:30:31.528Z,99923.41
2023-03-16T05:31:03.979Z,99913.03
2023-03-16T05:31:37.510Z,99898.06
2023-03-16T05:32:09.224Z,99913.78
2023-03-16T05:32:41.039Z,99912.63
2023-03-16T05:33:13.237Z,99917.03
2023-03-16T05:33:44.992Z,99914.31
2023-03-16T05:34:16.772Z,99920.25
2023-03-16T05:34:48.469Z,99908.66
2023-03-16T05:35:22.486Z,99908.34
2023-03-16T05:35:58.157Z,99920.22
2023-03-16T05:36:30.075Z,99919.81
2023-03-16T05:37:01.853Z,99909.19
2023-03-16T05:37:38.146Z,99921.94
2023-03-16T05:38:13.179Z,99924.06
2023-03-16T05:38:45.776Z,99916.13
2023-03-16T05:39:17.528Z,99915.16
2023-03-16T05:39:49.348Z,99904.44
2023-03-16T05:40:23.228Z,99914.09
2023-03-16T05:40:57.736Z,99919.28
2023-03-16T05:41:30.230Z,99912.16
2023-03-16T05:42:01.965Z,99921.19
2023-03-16T05:42:34.883Z,99913.25
2023-03-16T05:43:06.681Z,99927.22
2023-03-16T05:43:38.449Z,99917.28
2023-03-16T05:44:10.779Z,99917.47
2023-03-16T05:44:42.514Z,99909.84
2023-03-16T05:45:16.497Z,99924.69
2023-03-16T05:45:48.288Z,99922.88
2023-03-16T05:46:20.936Z,99916.00
2023-03-16T05:46:53.167Z,99919.81
2023-03-16T05:47:25.040Z,99923.72
2023-03-16T05:47:56.802Z,99932.75
2023-03-16T05:48:28.647Z,99919.47
2023-03-16T05:49:00.458Z,99920.03
2023-03-16T05:49:32.484Z,99927.16
2023-03-16T05:50:05.742Z,99922.47
2023-03-16T05:50:37.660Z,99918.25
2023-03-16T05:51:09.566Z,99927.88
2023-03-16T05:51:41.431Z,99929.16
2023-03-16T05:52:13.920Z,99930.53
2023-03-16T05:52:46.433Z,99931.41
2023-03-16T05:53:19.224Z,99940.63
2023-03-16T05:53:50.982Z,99925.88
2023-03-16T05:54:23.475Z,99928.00
2023-03-16T05:54:55.234Z,99935.88
2023-03-16T05:55:27.102Z,99936.72
2023-03-16T05:55:59.342Z,99940.44
2023-03-16T05:56:31.269Z,99949.13
2023-03-16T05:57:03.107Z,99938.81
2023-03-16T05:57:34.898Z,99929.47
2023-03-16T05:58:06.703Z,99943.59
2023-03-16T05:58:38.532Z,99939.13
2023-03-16T05:59:10.311Z,99937.88
2023-03-16T05:59:42.088Z,99940.22
2023-03-16T06:00:16.375Z,99944.53
2023-03-16T06:00:48.392Z,99945.59
2023-03-16T06:01:21.486Z,99941.53
2023-03-16T06:01:53.353Z,99954.09
2023-03-16T06:02:25.627Z,99946.56
2023-03-16T06:02:57.716Z,99949.09
2023-03-16T06:03:29.538Z,99948.00
2023-03-16T06:04:03.324Z,99953.38
2023-03-16T06:04:35.179Z,99959.41
2023-03-16T06:05:07.710Z,99958.81
2023-03-16T06:05:39.500Z,99952.38
2023-03-16T06:06:11.281Z,99956.97
2023-03-16T06:06:43.716Z,99962.13
2023-03-16T06:07:15.444Z,99953.22
2023-03-16T06:07:48.229Z,99960.50
2023-03-16T06:08:19.957Z,99951.47
2023-03-16T06:08:52.471Z,99954.56
2023-03-16T06:09:24.204Z,99957.03
2023-03-16T06:09:55.990Z,99956.94
2023-03-16T06:10:28.032Z,99966.38
2023-03-16T06:10:59.956Z,99967.06
2023-03-16T06:11:33.032Z,99963.75
2023-03-16T06:12:04.900Z,99967.47
2023-03-16T06:12:36.728Z,99966.75
2023-03-16T06:13:08.513Z,99975.78
2023-03-16T06:13:41.101Z,99967.53
2023-03-16T06:14:12.860Z,99965.22
2023-03-16T06:14:44.762Z,99974.41
2023-03-16T06:15:16.600Z,99977.56
2023-03-16T06:15:49.400Z,99967.81
2023-03-16T06:16:21.290Z,99961.19
2023-03-16T06:16:53.049Z,99960.28
2023-03-16T06:17:24.879Z,99969.59
2023-03-16T06:17:56.906Z,99972.78
2023-03-16T06:18:29.157Z,99973.16
2023-03-16T06:19:01.090Z,99973.44
2023-03-16T06:19:32.871Z,99964.97
2023-03-16T06:20:11.128Z,99967.00
2023-03-16T06:20:43.470Z,99969.16
2023-03-16T06:21:15.287Z,99979.13
2023-03-16T06:22:19.754Z,99975.00
2023-03-16T06:22:51.626Z,99969.94
2023-03-16T06:23:23.765Z,99969.56
2023-03-16T06:23:56.123Z,99973.91
2023-03-16T06:24:27.950Z,99965.56
2023-03-16T06:24:59.714Z,99972.25
2023-03-16T06:25:31.496Z,99985.78
2023-03-16T06:26:03.333Z,99975.75
2023-03-16T06:26:36.428Z,99975.50
2023-03-16T06:27:08.419Z,99975.78
2023-03-16T06:27:40.631Z,99979.41
2023-03-16T06:28:12.448Z,99991.63
2023-03-16T06:28:44.212Z,99971.28
2023-03-16T06:29:16.051Z,99975.13
2023-03-16T06:29:48.038Z,99985.94
2023-03-16T06:30:19.917Z,99980.13
2023-03-16T06:30:55.836Z,99985.44
2023-03-16T06:31:28.132Z,99986.84
2023-03-16T06:32:00.133Z,99989.94
2023-03-16T06:32:32.047Z,99994.16